METAR Data
IDs: Format: Raw Decoded Include TAF

Data at: 0220 UTC 24 Sep 2018

KERV 240215Z AUTO 34003KT 10SM OVC028 22/19 A2994 RMK AO2 T02200191
KERV 240155Z AUTO 34003KT 10SM OVC028 22/19 A2994 RMK AO2 T02200190
KERV 240135Z AUTO 36003KT 10SM OVC028 22/19 A2994 RMK AO2 T02200190
KERV 240115Z AUTO 36003KT 10SM OVC030 22/19 A2993 RMK AO2 T02200189
KERV 240055Z AUTO 36004KT 10SM BKN030 OVC055 22/19 A2993 RMK AO2 T02200186
KERV 240035Z AUTO 35005KT 10SM OVC032 22/18 A2993 RMK AO2 T02200184
KERV 240015Z AUTO 35005KT 10SM OVC032 22/19 A2993 RMK AO2 T02210185
KERV 232355Z AUTO 34006KT 10SM SCT023 OVC030 23/19 A2993 RMK AO2 T02260187 10247 20221
KERV 232335Z AUTO 34008KT 10SM SCT021 OVC029 23/19 A2993 RMK AO2 T02260187
KERV 232315Z AUTO 35005KT 10SM OVC031 23/19 A2993 RMK AO2 T02280188
KERV 232255Z AUTO 32004KT 10SM OVC031 23/19 A2993 RMK AO2 T02310194
KERV 232235Z AUTO 33005KT 10SM SCT024 OVC031 23/19 A2993 RMK AO2 T02250188
KERV 232215Z AUTO 36006KT 10SM BKN026 OVC031 23/19 A2993 RMK AO2 T02260186
KERV 232155Z AUTO 36006KT 10SM SCT024 BKN030 OVC037 23/19 A2993 RMK AO2 T02330189
KERV 232135Z AUTO 36008KT 10SM BKN027 OVC033 23/19 A2993 RMK AO2 T02330190
KERV 232115Z AUTO 32008KT 10SM BKN025 OVC033 23/18 A2994 RMK AO2 T02330183
KERV 232055Z AUTO 32006KT 10SM BKN023 BKN028 OVC036 25/19 A2994 RMK AO2 T02470194
KERV 232035Z AUTO 33007KT 10SM SCT023 OVC035 25/19 A2995 RMK AO2 T02470192
KERV 232015Z AUTO 31009KT 10SM BKN023 OVC036 24/19 A2996 RMK AO2 T02440194
KERV 231955Z AUTO 34007KT 10SM BKN025 OVC034 23/19 A2997 RMK AO2 T02330186
KERV 231935Z AUTO 31005KT 10SM SCT021 BKN029 OVC035 23/19 A2998 RMK AO2 T02270185
KERV 231915Z AUTO 32006KT 10SM BKN021 OVC029 23/19 A2998 RMK AO2 T02270186
KERV 231855Z AUTO 32008KT 10SM BKN021 OVC027 23/18 A2999 RMK AO2 T02260183
KERV 231835Z AUTO 31009KT 10SM SCT019 OVC025 23/19 A3000 RMK AO2 T02330185
KERV 231815Z AUTO 31010KT 10SM BKN019 OVC025 23/19 A3000 RMK AO2 T02330187
KERV 231755Z AUTO 30008KT 10SM OVC021 22/18 A3001 RMK AO2 T02200181 10226 20188
KERV 231735Z AUTO 30006KT 10SM BKN016 OVC021 22/19 A3001 RMK AO2 T02200185
KERV 231715Z AUTO 31006KT 10SM BKN018 OVC045 22/19 A3002 RMK AO2 T02220187
KERV 231655Z AUTO 33009KT 10SM BKN016 OVC021 23/19 A3002 RMK AO2 T02260185
KERV 231635Z AUTO 32007KT 10SM BKN014 OVC019 22/19 A3002 RMK AO2 T02200186
KERV 231615Z AUTO 33007KT 10SM OVC016 22/19 A3002 RMK AO2 T02200192
KERV 231555Z AUTO 32008KT 10SM BKN012 OVC019 21/18 A3002 RMK AO2 T02050183
KERV 231535Z AUTO 30007KT 10SM OVC012 21/18 A3002 RMK AO2 T02050182
KERV 231515Z AUTO 33005KT 10SM BKN012 BKN018 OVC027 21/19 A3001 RMK AO2 T02050186
KERV 231455Z AUTO 31004KT 4SM BR BKN005 OVC014 19/18 A3001 RMK AO2 T01920176
KERV 231435Z AUTO 34005KT 2SM DZ OVC007 19/17 A3001 RMK AO2 VIS 1 1/2V4 T01900173
KERV 231415Z AUTO 00000KT 7SM BKN009 OVC014 19/17 A3000 RMK AO2 T01900172
KERV 231355Z AUTO 00000KT 10SM SCT009 OVC014 19/17 A2999 RMK AO2 T01900173
KERV 231335Z AUTO 32004KT 3SM DZ OVC012 19/17 A2999 RMK AO2 T01900172
KERV 231320Z AUTO 32007KT 7SM OVC012 19/17 A2999 RMK AO2 T01900170
KERV 231255Z AUTO 00000KT 10SM OVC014 19/17 A2998 RMK AO2 T01900171
KERV 231235Z AUTO 00000KT 10SM OVC014 19/17 A2997 RMK AO2 T01900172
KERV 231215Z AUTO 00000KT 10SM BKN016 OVC023 19/17 A2997 RMK AO2 T01900172
KERV 231155Z AUTO 00000KT 10SM BKN011 BKN020 OVC026 19/17 A2997 RMK AO2 T01880171 10190 20183
KERV 231135Z AUTO 34005KT 10SM OVC011 19/17 A2996 RMK AO2 T01900170
KERV 231115Z AUTO 00000KT 10SM OVC013 19/17 A2996 RMK AO2 T01900169
KERV 231055Z AUTO 33004KT 10SM OVC015 19/17 A2995 RMK AO2 T01900170
KERV 231035Z AUTO 00000KT 10SM OVC015 19/17 A2995 RMK AO2 T01900170
KERV 231015Z AUTO 00000KT 10SM OVC015 19/17 A2995 RMK AO2 T01900170
KERV 230955Z AUTO 34003KT 10SM OVC015 19/17 A2995 RMK AO2 T01900170
KERV 230935Z AUTO 33003KT 10SM OVC013 19/17 A2996 RMK AO2 T01900170
KERV 230915Z AUTO 32003KT 10SM OVC013 19/17 A2996 RMK AO2 T01850165
KERV 230855Z AUTO 31004KT 10SM OVC015 19/17 A2996 RMK AO2 T01890168
KERV 230835Z AUTO 32004KT 10SM OVC013 19/17 A2996 RMK AO2 T01860166
KERV 230815Z AUTO 32004KT 10SM OVC011 19/17 A2997 RMK AO2 T01850165
KERV 230755Z AUTO 31005KT 10SM OVC011 19/16 A2998 RMK AO2 T01850163
KERV 230735Z AUTO 31004KT 10SM OVC011 19/16 A2998 RMK AO2 T01860164
KERV 230715Z AUTO 31005KT 10SM OVC011 19/16 A2999 RMK AO2 T01860164
KERV 230655Z AUTO 33004KT 10SM OVC011 19/16 A2999 RMK AO2 T01850161
KERV 230635Z AUTO 34007KT 10SM OVC013 18/16 A2999 RMK AO2 T01830160
KERV 230615Z AUTO 33006KT 10SM BKN013 OVC045 18/16 A3000 RMK AO2 T01830160
KERV 230555Z AUTO 33006KT 10SM BKN013 OVC048 18/16 A3000 RMK AO2 T01830158 10190 20180 402230170
KERV 230535Z AUTO 33007KT 10SM SCT015 OVC048 18/16 A3000 RMK AO2 T01830158
KERV 230515Z AUTO 33004KT 10SM BKN015 OVC048 18/16 A3001 RMK AO2 T01820157
KERV 230455Z AUTO 34005KT 10SM OVC019 18/16 A3001 RMK AO2 T01820156
KERV 230435Z AUTO 33004KT 10SM OVC019 18/16 A3002 RMK AO2 T01810155
KERV 230415Z AUTO 34004KT 10SM BKN019 OVC048 18/16 A3002 RMK AO2 T01810155
KERV 230355Z AUTO 33005KT 10SM SCT019 SCT027 OVC048 18/15 A3002 RMK AO2 T01810154
KERV 230335Z AUTO 32005KT 10SM BKN027 OVC048 18/15 A3002 RMK AO2 T01810154
KERV 230315Z AUTO 33004KT 10SM OVC027 18/15 A3002 RMK AO2 T01810153
KERV 230255Z AUTO 33006KT 10SM OVC027 18/15 A3002 RMK AO2 T01820154
KERV 230235Z AUTO 32008KT 10SM SCT018 OVC027 18/15 A3002 RMK AO2 T01820153
KERV 230215Z AUTO 34005KT 10SM OVC016 18/15 A3002 RMK AO2 T01830153
KERV 230155Z AUTO 33007KT 10SM OVC018 18/15 A3002 RMK AO2 T01830153
KERV 230135Z AUTO 33007KT 10SM OVC018 18/15 A3001 RMK AO2 T01830153
KERV 230115Z AUTO 33006KT 10SM OVC018 18/15 A3000 RMK AO2 T01830153
KERV 230055Z AUTO 34009KT 10SM OVC018 19/15 A3000 RMK AO2 T01850152
KERV 230035Z AUTO 33011G17KT 10SM OVC020 19/16 A2999 RMK AO2 T01900157
KERV 230015Z AUTO 33009KT 10SM OVC020 19/16 A2999 RMK AO2 T01900155
KERV 222355Z AUTO 32010KT 10SM OVC020 19/16 A2999 RMK AO2 T01900155 10220 20190
KERV 222335Z AUTO 34009KT 10SM OVC020 20/16 A2999 RMK AO2 T01950159
KERV 222315Z AUTO 33010KT 10SM OVC020 20/16 A2999 RMK AO2 T01970160
KERV 222255Z AUTO 32010G14KT 10SM OVC020 21/17 A2999 RMK AO2 T02050166
KERV 222235Z AUTO 32010KT 10SM OVC020 21/17 A3000 RMK AO2 T02050166
KERV 222215Z AUTO 34012KT 10SM OVC020 21/17 A3000 RMK AO2 T02050167
KERV 222155Z AUTO 34008KT 10SM OVC020 21/17 A2999 RMK AO2 T02050167
KERV 222135Z AUTO 34011KT 10SM OVC020 21/17 A2999 RMK AO2 LTG DSNT E T02050166
KERV 222115Z AUTO 34009KT 10SM OVC020 21/17 A2999 RMK AO2 T02050166
KERV 222055Z AUTO 34012KT 10SM OVC020 21/17 A3000 RMK AO2 T02050167
KERV 222035Z AUTO 33009KT 10SM OVC020 21/17 A3000 RMK AO2 T02050166
KERV 222015Z AUTO 32011G15KT 10SM OVC020 21/17 A3000 RMK AO2 T02050165
KERV 221955Z AUTO 34011G15KT 10SM OVC020 22/17 A3000 RMK AO2 T02200174
KERV 221935Z AUTO 33009KT 10SM OVC018 22/18 A3001 RMK AO2 T02200176
KERV 221915Z AUTO 32012KT 10SM OVC018 21/17 A3001 RMK AO2 T02110168
KERV 221855Z AUTO 33009G17KT 10SM OVC018 22/18 A3002 RMK AO2 T02200175
KERV 221835Z AUTO 35014G17KT 10SM OVC018 21/17 A3002 RMK AO2 T02080166
KERV 221815Z AUTO 34012G17KT 10SM OVC016 21/17 A3003 RMK AO2 LTG DSNT E T02050166
KERV 221755Z AUTO 32012KT 10SM OVC016 20/17 A3004 RMK AO2 T02040166 10204 20170
KERV 221735Z AUTO 33013G17KT 10SM OVC014 19/16 A3004 RMK AO2 T01900155
KERV 221715Z AUTO 34013G17KT 10SM OVC014 19/16 A3005 RMK AO2 T01900157
KERV 221655Z AUTO 34009G16KT 10SM OVC014 19/16 A3005 RMK AO2 T01890158
KERV 221635Z AUTO 34011KT 10SM OVC012 18/15 A3005 RMK AO2 T01810151
KERV 221615Z AUTO 34014G19KT 10SM OVC012 18/15 A3005 RMK AO2 T01770150
KERV 221555Z AUTO 34014G19KT 10SM OVC012 18/15 A3005 RMK AO2 T01760150
KERV 221535Z AUTO 32011KT 10SM OVC012 18/15 A3005 RMK AO2 T01760150
KERV 221515Z AUTO 34015G20KT 10SM OVC012 18/15 A3004 RMK AO2 T01750150
KERV 221455Z AUTO 34012G19KT 10SM OVC012 18/15 A3004 RMK AO2 T01750151
KERV 221435Z AUTO 34012G15KT 10SM OVC012 17/15 A3004 RMK AO2 T01730148